sensor_id;sensor_type;location;lat;lon;timestamp;P1;durP1;ratioP1;P2;durP2;ratioP2
17390;SDS011;8813;54.444;18.446;2023-10-13T00:02:02;2.20;;;2.10;;
17390;SDS011;8813;54.444;18.446;2023-10-13T00:04:32;2.67;;;2.58;;
17390;SDS011;8813;54.444;18.446;2023-10-13T00:07:01;1.40;;;1.40;;
17390;SDS011;8813;54.444;18.446;2023-10-13T00:09:29;1.50;;;1.50;;
17390;SDS011;8813;54.444;18.446;2023-10-13T00:11:58;1.40;;;1.40;;
17390;SDS011;8813;54.444;18.446;2023-10-13T00:14:25;1.40;;;1.40;;
17390;SDS011;8813;54.444;18.446;2023-10-13T00:16:58;1.60;;;1.60;;
17390;SDS011;8813;54.444;18.446;2023-10-13T00:19:31;1.60;;;1.60;;
17390;SDS011;8813;54.444;18.446;2023-10-13T00:22:04;2.95;;;1.90;;
17390;SDS011;8813;54.444;18.446;2023-10-13T00:24:39;1.42;;;1.42;;
17390;SDS011;8813;54.444;18.446;2023-10-13T00:27:11;1.35;;;1.35;;
17390;SDS011;8813;54.444;18.446;2023-10-13T00:29:53;1.40;;;1.40;;
17390;SDS011;8813;54.444;18.446;2023-10-13T00:32:40;1.50;;;1.50;;
17390;SDS011;8813;54.444;18.446;2023-10-13T00:35:13;1.40;;;1.40;;
17390;SDS011;8813;54.444;18.446;2023-10-13T00:37:52;1.20;;;1.20;;
17390;SDS011;8813;54.444;18.446;2023-10-13T00:40:19;1.45;;;1.45;;
17390;SDS011;8813;54.444;18.446;2023-10-13T00:43:06;1.50;;;1.50;;
17390;SDS011;8813;54.444;18.446;2023-10-13T00:45:48;1.55;;;1.55;;
17390;SDS011;8813;54.444;18.446;2023-10-13T00:48:22;2.00;;;2.00;;
17390;SDS011;8813;54.444;18.446;2023-10-13T00:50:55;1.60;;;1.60;;
17390;SDS011;8813;54.444;18.446;2023-10-13T00:53:28;1.50;;;1.50;;
17390;SDS011;8813;54.444;18.446;2023-10-13T00:55:54;1.50;;;1.50;;
17390;SDS011;8813;54.444;18.446;2023-10-13T00:58:22;1.50;;;1.50;;
17390;SDS011;8813;54.444;18.446;2023-10-13T01:00:50;2.03;;;2.03;;
17390;SDS011;8813;54.444;18.446;2023-10-13T01:03:25;1.70;;;1.70;;
17390;SDS011;8813;54.444;18.446;2023-10-13T01:05:55;1.70;;;1.70;;
17390;SDS011;8813;54.444;18.446;2023-10-13T01:08:33;1.88;;;1.88;;
17390;SDS011;8813;54.444;18.446;2023-10-13T01:11:00;1.70;;;1.70;;
17390;SDS011;8813;54.444;18.446;2023-10-13T01:13:27;1.40;;;1.40;;
17390;SDS011;8813;54.444;18.446;2023-10-13T01:15:56;1.50;;;1.50;;
17390;SDS011;8813;54.444;18.446;2023-10-13T01:18:23;1.42;;;1.42;;
17390;SDS011;8813;54.444;18.446;2023-10-13T01:20:55;1.40;;;1.40;;
17390;SDS011;8813;54.444;18.446;2023-10-13T01:23:27;1.50;;;1.50;;
17390;SDS011;8813;54.444;18.446;2023-10-13T01:25:54;1.40;;;1.40;;
17390;SDS011;8813;54.444;18.446;2023-10-13T01:28:22;2.00;;;2.00;;
17390;SDS011;8813;54.444;18.446;2023-10-13T01:30:49;1.50;;;1.50;;
17390;SDS011;8813;54.444;18.446;2023-10-13T01:33:16;1.70;;;1.70;;
17390;SDS011;8813;54.444;18.446;2023-10-13T01:35:51;1.60;;;1.60;;
17390;SDS011;8813;54.444;18.446;2023-10-13T01:38:20;1.50;;;1.50;;
17390;SDS011;8813;54.444;18.446;2023-10-13T01:40:47;1.77;;;1.77;;
17390;SDS011;8813;54.444;18.446;2023-10-13T01:43:16;1.80;;;1.80;;
17390;SDS011;8813;54.444;18.446;2023-10-13T01:45:43;1.80;;;1.80;;
17390;SDS011;8813;54.444;18.446;2023-10-13T01:48:14;1.80;;;1.80;;
17390;SDS011;8813;54.444;18.446;2023-10-13T01:50:42;1.70;;;1.70;;
17390;SDS011;8813;54.444;18.446;2023-10-13T01:53:12;1.80;;;1.80;;
17390;SDS011;8813;54.444;18.446;2023-10-13T01:55:39;1.60;;;1.60;;
17390;SDS011;8813;54.444;18.446;2023-10-13T01:58:10;1.60;;;1.60;;
17390;SDS011;8813;54.444;18.446;2023-10-13T02:00:40;1.80;;;1.80;;
17390;SDS011;8813;54.444;18.446;2023-10-13T02:03:08;1.70;;;1.70;;
17390;SDS011;8813;54.444;18.446;2023-10-13T02:05:41;1.80;;;1.80;;
17390;SDS011;8813;54.444;18.446;2023-10-13T02:08:12;2.10;;;2.10;;
17390;SDS011;8813;54.444;18.446;2023-10-13T02:10:43;2.15;;;2.15;;
17390;SDS011;8813;54.444;18.446;2023-10-13T02:13:14;2.10;;;2.10;;
17390;SDS011;8813;54.444;18.446;2023-10-13T02:15:41;2.30;;;2.30;;
17390;SDS011;8813;54.444;18.446;2023-10-13T02:18:10;2.30;;;2.30;;
17390;SDS011;8813;54.444;18.446;2023-10-13T02:20:37;1.90;;;1.90;;
17390;SDS011;8813;54.444;18.446;2023-10-13T02:23:08;3.10;;;3.05;;
17390;SDS011;8813;54.444;18.446;2023-10-13T02:25:36;3.03;;;2.97;;
17390;SDS011;8813;54.444;18.446;2023-10-13T02:28:11;2.80;;;2.80;;
17390;SDS011;8813;54.444;18.446;2023-10-13T02:30:41;3.00;;;3.00;;
17390;SDS011;8813;54.444;18.446;2023-10-13T02:33:11;2.70;;;2.70;;
17390;SDS011;8813;54.444;18.446;2023-10-13T02:35:38;2.80;;;2.80;;
17390;SDS011;8813;54.444;18.446;2023-10-13T02:38:15;2.70;;;2.70;;
17390;SDS011;8813;54.444;18.446;2023-10-13T02:40:42;2.85;;;2.85;;
17390;SDS011;8813;54.444;18.446;2023-10-13T02:43:09;3.97;;;3.88;;
17390;SDS011;8813;54.444;18.446;2023-10-13T02:45:36;2.90;;;2.90;;
17390;SDS011;8813;54.444;18.446;2023-10-13T02:48:05;2.60;;;2.60;;
17390;SDS011;8813;54.444;18.446;2023-10-13T02:50:39;2.70;;;2.70;;
17390;SDS011;8813;54.444;18.446;2023-10-13T02:53:10;2.55;;;2.55;;
17390;SDS011;8813;54.444;18.446;2023-10-13T02:55:48;2.42;;;2.42;;
17390;SDS011;8813;54.444;18.446;2023-10-13T02:58:18;2.60;;;2.60;;
17390;SDS011;8813;54.444;18.446;2023-10-13T03:00:45;2.60;;;2.60;;
17390;SDS011;8813;54.444;18.446;2023-10-13T03:03:15;2.80;;;2.80;;
17390;SDS011;8813;54.444;18.446;2023-10-13T03:05:44;2.60;;;2.60;;
17390;SDS011;8813;54.444;18.446;2023-10-13T03:08:13;2.60;;;2.60;;
17390;SDS011;8813;54.444;18.446;2023-10-13T03:10:50;3.05;;;3.05;;
17390;SDS011;8813;54.444;18.446;2023-10-13T03:13:19;2.80;;;2.80;;
17390;SDS011;8813;54.444;18.446;2023-10-13T03:15:46;2.80;;;2.80;;
17390;SDS011;8813;54.444;18.446;2023-10-13T03:18:15;2.70;;;2.70;;
17390;SDS011;8813;54.444;18.446;2023-10-13T03:20:43;2.70;;;2.70;;
17390;SDS011;8813;54.444;18.446;2023-10-13T03:23:15;2.80;;;2.80;;
17390;SDS011;8813;54.444;18.446;2023-10-13T03:25:42;3.10;;;3.10;;
17390;SDS011;8813;54.444;18.446;2023-10-13T03:28:08;2.72;;;2.72;;
17390;SDS011;8813;54.444;18.446;2023-10-13T03:30:38;3.10;;;3.10;;
17390;SDS011;8813;54.444;18.446;2023-10-13T03:33:07;2.90;;;2.90;;
17390;SDS011;8813;54.444;18.446;2023-10-13T03:35:36;2.88;;;2.88;;
17390;SDS011;8813;54.444;18.446;2023-10-13T03:38:05;3.00;;;3.00;;
17390;SDS011;8813;54.444;18.446;2023-10-13T03:40:42;3.08;;;3.08;;
17390;SDS011;8813;54.444;18.446;2023-10-13T03:43:13;3.75;;;3.65;;
17390;SDS011;8813;54.444;18.446;2023-10-13T03:45:42;2.90;;;2.90;;
17390;SDS011;8813;54.444;18.446;2023-10-13T03:48:13;3.00;;;3.00;;
17390;SDS011;8813;54.444;18.446;2023-10-13T03:50:55;2.70;;;2.70;;
17390;SDS011;8813;54.444;18.446;2023-10-13T03:53:32;2.70;;;2.70;;
17390;SDS011;8813;54.444;18.446;2023-10-13T03:56:02;2.80;;;2.80;;
17390;SDS011;8813;54.444;18.446;2023-10-13T03:58:37;2.33;;;2.33;;
17390;SDS011;8813;54.444;18.446;2023-10-13T04:01:08;2.40;;;2.40;;
17390;SDS011;8813;54.444;18.446;2023-10-13T04:03:37;2.60;;;2.60;;
17390;SDS011;8813;54.444;18.446;2023-10-13T04:06:09;2.90;;;2.90;;
17390;SDS011;8813;54.444;18.446;2023-10-13T04:08:41;2.40;;;2.40;;
17390;SDS011;8813;54.444;18.446;2023-10-13T04:11:30;6.75;;;6.55;;
17390;SDS011;8813;54.444;18.446;2023-10-13T04:14:23;2.60;;;2.60;;
17390;SDS011;8813;54.444;18.446;2023-10-13T04:17:10;2.33;;;2.33;;
17390;SDS011;8813;54.444;18.446;2023-10-13T04:19:39;2.50;;;2.50;;
17390;SDS011;8813;54.444;18.446;2023-10-13T04:22:27;2.25;;;2.25;;
17390;SDS011;8813;54.444;18.446;2023-10-13T04:25:15;2.20;;;2.20;;
17390;SDS011;8813;54.444;18.446;2023-10-13T04:28:00;2.30;;;2.30;;
17390;SDS011;8813;54.444;18.446;2023-10-13T04:30:59;2.60;;;2.60;;
17390;SDS011;8813;54.444;18.446;2023-10-13T04:33:37;2.30;;;2.30;;
17390;SDS011;8813;54.444;18.446;2023-10-13T04:36:17;3.00;;;3.00;;
17390;SDS011;8813;54.444;18.446;2023-10-13T04:38:50;3.90;;;3.80;;
17390;SDS011;8813;54.444;18.446;2023-10-13T04:41:34;2.60;;;2.60;;
17390;SDS011;8813;54.444;18.446;2023-10-13T04:44:03;2.70;;;2.70;;
17390;SDS011;8813;54.444;18.446;2023-10-13T04:46:49;3.10;;;3.10;;
17390;SDS011;8813;54.444;18.446;2023-10-13T04:49:33;3.20;;;3.20;;
17390;SDS011;8813;54.444;18.446;2023-10-13T04:52:15;2.97;;;2.97;;
17390;SDS011;8813;54.444;18.446;2023-10-13T04:55:06;2.95;;;2.95;;
17390;SDS011;8813;54.444;18.446;2023-10-13T04:57:42;3.10;;;3.10;;
17390;SDS011;8813;54.444;18.446;2023-10-13T05:00:25;6.28;;;4.35;;
17390;SDS011;8813;54.444;18.446;2023-10-13T05:03:09;2.70;;;2.70;;
17390;SDS011;8813;54.444;18.446;2023-10-13T05:05:54;4.63;;;4.53;;
17390;SDS011;8813;54.444;18.446;2023-10-13T05:08:38;3.40;;;3.40;;
17390;SDS011;8813;54.444;18.446;2023-10-13T05:11:24;3.60;;;3.50;;
17390;SDS011;8813;54.444;18.446;2023-10-13T05:14:08;3.70;;;3.60;;
17390;SDS011;8813;54.444;18.446;2023-10-13T05:16:53;3.90;;;3.80;;
17390;SDS011;8813;54.444;18.446;2023-10-13T05:19:37;3.70;;;3.60;;
17390;SDS011;8813;54.444;18.446;2023-10-13T05:22:21;3.40;;;3.40;;
17390;SDS011;8813;54.444;18.446;2023-10-13T05:25:05;3.00;;;3.00;;
17390;SDS011;8813;54.444;18.446;2023-10-13T05:27:51;4.50;;;4.38;;
17390;SDS011;8813;54.444;18.446;2023-10-13T05:30:36;3.30;;;3.30;;
17390;SDS011;8813;54.444;18.446;2023-10-13T05:33:20;3.10;;;3.10;;
17390;SDS011;8813;54.444;18.446;2023-10-13T05:36:09;3.30;;;3.30;;
17390;SDS011;8813;54.444;18.446;2023-10-13T05:38:54;3.80;;;3.70;;
17390;SDS011;8813;54.444;18.446;2023-10-13T05:41:38;3.20;;;3.20;;
17390;SDS011;8813;54.444;18.446;2023-10-13T05:44:24;3.00;;;3.00;;
17390;SDS011;8813;54.444;18.446;2023-10-13T05:47:03;3.00;;;3.00;;
17390;SDS011;8813;54.444;18.446;2023-10-13T05:49:53;5.35;;;5.20;;
17390;SDS011;8813;54.444;18.446;2023-10-13T05:52:30;4.10;;;4.00;;
17390;SDS011;8813;54.444;18.446;2023-10-13T05:55:14;3.80;;;3.70;;
17390;SDS011;8813;54.444;18.446;2023-10-13T05:57:58;3.92;;;3.83;;
17390;SDS011;8813;54.444;18.446;2023-10-13T06:00:44;3.85;;;3.75;;
17390;SDS011;8813;54.444;18.446;2023-10-13T06:03:29;3.75;;;3.65;;
17390;SDS011;8813;54.444;18.446;2023-10-13T06:06:13;3.67;;;3.58;;
17390;SDS011;8813;54.444;18.446;2023-10-13T06:08:58;4.15;;;4.05;;
17390;SDS011;8813;54.444;18.446;2023-10-13T06:12:00;4.10;;;4.00;;
17390;SDS011;8813;54.444;18.446;2023-10-13T06:14:45;3.58;;;3.47;;
17390;SDS011;8813;54.444;18.446;2023-10-13T06:17:31;3.90;;;3.80;;
17390;SDS011;8813;54.444;18.446;2023-10-13T06:20:15;3.75;;;3.65;;
17390;SDS011;8813;54.444;18.446;2023-10-13T06:23:00;3.40;;;3.40;;
17390;SDS011;8813;54.444;18.446;2023-10-13T06:25:50;3.90;;;3.80;;
17390;SDS011;8813;54.444;18.446;2023-10-13T06:28:35;3.10;;;3.10;;
17390;SDS011;8813;54.444;18.446;2023-10-13T06:31:09;3.30;;;3.20;;
17390;SDS011;8813;54.444;18.446;2023-10-13T06:33:47;3.45;;;3.35;;
17390;SDS011;8813;54.444;18.446;2023-10-13T06:36:14;3.10;;;3.10;;
17390;SDS011;8813;54.444;18.446;2023-10-13T06:38:43;3.30;;;3.30;;
17390;SDS011;8813;54.444;18.446;2023-10-13T06:41:11;2.90;;;2.90;;
17390;SDS011;8813;54.444;18.446;2023-10-13T06:43:45;5.40;;;3.90;;
17390;SDS011;8813;54.444;18.446;2023-10-13T06:46:25;4.10;;;3.85;;
17390;SDS011;8813;54.444;18.446;2023-10-13T06:48:55;2.88;;;2.78;;
17390;SDS011;8813;54.444;18.446;2023-10-13T06:51:25;2.10;;;2.10;;
17390;SDS011;8813;54.444;18.446;2023-10-13T06:53:56;2.20;;;2.20;;
17390;SDS011;8813;54.444;18.446;2023-10-13T06:56:23;2.30;;;2.30;;
17390;SDS011;8813;54.444;18.446;2023-10-13T06:58:54;3.70;;;2.42;;
17390;SDS011;8813;54.444;18.446;2023-10-13T07:01:25;3.47;;;3.28;;
17390;SDS011;8813;54.444;18.446;2023-10-13T07:03:52;1.92;;;1.92;;
17390;SDS011;8813;54.444;18.446;2023-10-13T07:06:27;1.95;;;1.95;;
17390;SDS011;8813;54.444;18.446;2023-10-13T07:08:58;1.95;;;1.95;;
17390;SDS011;8813;54.444;18.446;2023-10-13T07:11:29;2.00;;;2.00;;
17390;SDS011;8813;54.444;18.446;2023-10-13T07:14:01;2.00;;;2.00;;
17390;SDS011;8813;54.444;18.446;2023-10-13T07:16:36;2.00;;;2.00;;
17390;SDS011;8813;54.444;18.446;2023-10-13T07:19:12;6.50;;;3.30;;
17390;SDS011;8813;54.444;18.446;2023-10-13T07:21:44;1.90;;;1.90;;
17390;SDS011;8813;54.444;18.446;2023-10-13T07:24:11;2.00;;;2.00;;
17390;SDS011;8813;54.444;18.446;2023-10-13T07:26:39;2.10;;;2.10;;
17390;SDS011;8813;54.444;18.446;2023-10-13T07:29:11;1.77;;;1.77;;
17390;SDS011;8813;54.444;18.446;2023-10-13T07:31:39;1.80;;;1.80;;
17390;SDS011;8813;54.444;18.446;2023-10-13T07:34:10;1.70;;;1.70;;
17390;SDS011;8813;54.444;18.446;2023-10-13T07:36:44;1.70;;;1.70;;
17390;SDS011;8813;54.444;18.446;2023-10-13T07:39:11;1.88;;;1.88;;
17390;SDS011;8813;54.444;18.446;2023-10-13T07:41:49;1.70;;;1.70;;
17390;SDS011;8813;54.444;18.446;2023-10-13T07:44:24;1.60;;;1.60;;
17390;SDS011;8813;54.444;18.446;2023-10-13T07:46:54;2.10;;;2.00;;
17390;SDS011;8813;54.444;18.446;2023-10-13T07:49:28;2.25;;;2.25;;
17390;SDS011;8813;54.444;18.446;2023-10-13T07:52:03;2.05;;;2.05;;
17390;SDS011;8813;54.444;18.446;2023-10-13T07:54:49;2.10;;;2.10;;
17390;SDS011;8813;54.444;18.446;2023-10-13T07:57:25;1.80;;;1.80;;
17390;SDS011;8813;54.444;18.446;2023-10-13T07:59:54;3.03;;;2.92;;
17390;SDS011;8813;54.444;18.446;2023-10-13T08:02:33;2.40;;;2.22;;
17390;SDS011;8813;54.444;18.446;2023-10-13T08:05:14;1.70;;;1.70;;
17390;SDS011;8813;54.444;18.446;2023-10-13T08:07:51;1.88;;;1.88;;
17390;SDS011;8813;54.444;18.446;2023-10-13T08:10:18;1.52;;;1.52;;
17390;SDS011;8813;54.444;18.446;2023-10-13T08:12:50;2.03;;;1.98;;
17390;SDS011;8813;54.444;18.446;2023-10-13T08:15:23;1.70;;;1.70;;
17390;SDS011;8813;54.444;18.446;2023-10-13T08:17:57;1.50;;;1.50;;
17390;SDS011;8813;54.444;18.446;2023-10-13T08:20:30;1.45;;;1.45;;
17390;SDS011;8813;54.444;18.446;2023-10-13T08:23:07;1.40;;;1.40;;
17390;SDS011;8813;54.444;18.446;2023-10-13T08:25:41;1.30;;;1.30;;
17390;SDS011;8813;54.444;18.446;2023-10-13T08:28:22;1.70;;;1.70;;
17390;SDS011;8813;54.444;18.446;2023-10-13T08:31:06;1.90;;;1.80;;
17390;SDS011;8813;54.444;18.446;2023-10-13T08:33:45;1.45;;;1.45;;
17390;SDS011;8813;54.444;18.446;2023-10-13T08:36:12;2.65;;;2.45;;
17390;SDS011;8813;54.444;18.446;2023-10-13T08:38:54;1.50;;;1.50;;
17390;SDS011;8813;54.444;18.446;2023-10-13T08:41:21;3.75;;;1.85;;
17390;SDS011;8813;54.444;18.446;2023-10-13T08:43:55;1.73;;;1.73;;
17390;SDS011;8813;54.444;18.446;2023-10-13T08:46:34;1.83;;;1.83;;
17390;SDS011;8813;54.444;18.446;2023-10-13T08:49:18;1.60;;;1.60;;
17390;SDS011;8813;54.444;18.446;2023-10-13T08:51:48;2.60;;;1.73;;
17390;SDS011;8813;54.444;18.446;2023-10-13T08:54:31;1.30;;;1.30;;
17390;SDS011;8813;54.444;18.446;2023-10-13T08:57:11;1.75;;;1.45;;
17390;SDS011;8813;54.444;18.446;2023-10-13T08:59:58;1.10;;;1.10;;
17390;SDS011;8813;54.444;18.446;2023-10-13T09:02:44;2.30;;;2.20;;
17390;SDS011;8813;54.444;18.446;2023-10-13T09:05:46;1.40;;;1.30;;
17390;SDS011;8813;54.444;18.446;2023-10-13T09:08:26;6.25;;;1.65;;
17390;SDS011;8813;54.444;18.446;2023-10-13T09:11:03;1.63;;;1.63;;
17390;SDS011;8813;54.444;18.446;2023-10-13T09:13:37;1.05;;;1.05;;
17390;SDS011;8813;54.444;18.446;2023-10-13T09:16:10;1.00;;;1.00;;
17390;SDS011;8813;54.444;18.446;2023-10-13T09:18:52;1.95;;;1.85;;
17390;SDS011;8813;54.444;18.446;2023-10-13T09:21:19;1.58;;;1.58;;
17390;SDS011;8813;54.444;18.446;2023-10-13T09:24:03;1.67;;;1.67;;
17390;SDS011;8813;54.444;18.446;2023-10-13T09:26:48;3.22;;;2.13;;
17390;SDS011;8813;54.444;18.446;2023-10-13T09:29:18;1.00;;;1.00;;
17390;SDS011;8813;54.444;18.446;2023-10-13T09:31:46;2.38;;;1.48;;
17390;SDS011;8813;54.444;18.446;2023-10-13T09:34:20;1.10;;;1.10;;
17390;SDS011;8813;54.444;18.446;2023-10-13T09:36:52;2.30;;;1.88;;
17390;SDS011;8813;54.444;18.446;2023-10-13T09:39:24;1.00;;;1.00;;
17390;SDS011;8813;54.444;18.446;2023-10-13T09:42:01;3.92;;;1.73;;
17390;SDS011;8813;54.444;18.446;2023-10-13T09:44:28;1.00;;;1.00;;
17390;SDS011;8813;54.444;18.446;2023-10-13T09:46:58;1.40;;;1.33;;
17390;SDS011;8813;54.444;18.446;2023-10-13T09:49:32;1.17;;;1.17;;
17390;SDS011;8813;54.444;18.446;2023-10-13T09:52:16;1.00;;;1.00;;
17390;SDS011;8813;54.444;18.446;2023-10-13T09:54:53;0.80;;;0.80;;
17390;SDS011;8813;54.444;18.446;2023-10-13T09:57:31;0.95;;;0.95;;
17390;SDS011;8813;54.444;18.446;2023-10-13T10:00:05;1.10;;;1.10;;
17390;SDS011;8813;54.444;18.446;2023-10-13T10:02:57;1.25;;;1.23;;
17390;SDS011;8813;54.444;18.446;2023-10-13T10:05:29;1.23;;;1.08;;
17390;SDS011;8813;54.444;18.446;2023-10-13T10:07:59;1.10;;;1.10;;
17390;SDS011;8813;54.444;18.446;2023-10-13T10:13:15;2.22;;;1.60;;
17390;SDS011;8813;54.444;18.446;2023-10-13T10:15:49;0.80;;;0.80;;
17390;SDS011;8813;54.444;18.446;2023-10-13T10:18:17;0.90;;;0.90;;
17390;SDS011;8813;54.444;18.446;2023-10-13T10:20:47;0.95;;;0.95;;
17390;SDS011;8813;54.444;18.446;2023-10-13T10:23:23;1.35;;;1.25;;
17390;SDS011;8813;54.444;18.446;2023-10-13T10:25:53;0.70;;;0.70;;
17390;SDS011;8813;54.444;18.446;2023-10-13T10:28:37;2.65;;;1.40;;
17390;SDS011;8813;54.444;18.446;2023-10-13T10:31:06;5.25;;;1.55;;
17390;SDS011;8813;54.444;18.446;2023-10-13T10:33:37;7.43;;;1.45;;
17390;SDS011;8813;54.444;18.446;2023-10-13T10:36:05;1.60;;;1.60;;
17390;SDS011;8813;54.444;18.446;2023-10-13T10:38:37;1.13;;;1.10;;
17390;SDS011;8813;54.444;18.446;2023-10-13T10:41:05;0.80;;;0.80;;
17390;SDS011;8813;54.444;18.446;2023-10-13T10:43:36;1.65;;;1.00;;
17390;SDS011;8813;54.444;18.446;2023-10-13T10:46:12;1.00;;;1.00;;
17390;SDS011;8813;54.444;18.446;2023-10-13T10:48:39;1.17;;;1.17;;
17390;SDS011;8813;54.444;18.446;2023-10-13T10:51:09;1.17;;;1.17;;
17390;SDS011;8813;54.444;18.446;2023-10-13T10:53:46;1.02;;;1.02;;
17390;SDS011;8813;54.444;18.446;2023-10-13T10:56:15;3.70;;;1.80;;
17390;SDS011;8813;54.444;18.446;2023-10-13T10:58:53;0.90;;;0.90;;
17390;SDS011;8813;54.444;18.446;2023-10-13T11:01:21;1.50;;;1.50;;
17390;SDS011;8813;54.444;18.446;2023-10-13T11:03:55;1.13;;;1.13;;
17390;SDS011;8813;54.444;18.446;2023-10-13T11:06:33;1.05;;;1.05;;
17390;SDS011;8813;54.444;18.446;2023-10-13T11:09:07;3.05;;;1.90;;
17390;SDS011;8813;54.444;18.446;2023-10-13T11:11:44;1.48;;;1.42;;
17390;SDS011;8813;54.444;18.446;2023-10-13T11:14:22;0.98;;;0.98;;
17390;SDS011;8813;54.444;18.446;2023-10-13T11:16:51;3.47;;;1.35;;
17390;SDS011;8813;54.444;18.446;2023-10-13T11:19:20;1.00;;;1.00;;
17390;SDS011;8813;54.444;18.446;2023-10-13T11:21:53;0.90;;;0.90;;
17390;SDS011;8813;54.444;18.446;2023-10-13T11:24:21;1.63;;;1.52;;
17390;SDS011;8813;54.444;18.446;2023-10-13T11:26:49;1.30;;;1.30;;
17390;SDS011;8813;54.444;18.446;2023-10-13T11:29:18;1.45;;;1.45;;
17390;SDS011;8813;54.444;18.446;2023-10-13T11:31:59;4.60;;;1.88;;
17390;SDS011;8813;54.444;18.446;2023-10-13T11:34:28;1.30;;;1.30;;
17390;SDS011;8813;54.444;18.446;2023-10-13T11:37:07;4.72;;;1.60;;
17390;SDS011;8813;54.444;18.446;2023-10-13T11:39:53;4.10;;;2.20;;
17390;SDS011;8813;54.444;18.446;2023-10-13T11:42:21;0.95;;;0.95;;
17390;SDS011;8813;54.444;18.446;2023-10-13T11:44:51;0.90;;;0.90;;
17390;SDS011;8813;54.444;18.446;2023-10-13T11:47:39;2.45;;;1.98;;
17390;SDS011;8813;54.444;18.446;2023-10-13T11:50:15;3.65;;;3.20;;
17390;SDS011;8813;54.444;18.446;2023-10-13T11:52:57;1.50;;;1.48;;
17390;SDS011;8813;54.444;18.446;2023-10-13T11:55:24;1.33;;;1.33;;
17390;SDS011;8813;54.444;18.446;2023-10-13T11:57:51;1.23;;;1.23;;
17390;SDS011;8813;54.444;18.446;2023-10-13T12:00:24;1.00;;;1.00;;
17390;SDS011;8813;54.444;18.446;2023-10-13T12:03:14;2.65;;;2.33;;
17390;SDS011;8813;54.444;18.446;2023-10-13T12:05:58;1.20;;;1.20;;
17390;SDS011;8813;54.444;18.446;2023-10-13T12:08:39;3.20;;;2.55;;
17390;SDS011;8813;54.444;18.446;2023-10-13T12:11:14;1.33;;;1.33;;
17390;SDS011;8813;54.444;18.446;2023-10-13T12:14:08;5.90;;;4.68;;
17390;SDS011;8813;54.444;18.446;2023-10-13T12:16:44;2.10;;;2.00;;
17390;SDS011;8813;54.444;18.446;2023-10-13T12:19:15;1.75;;;1.65;;
17390;SDS011;8813;54.444;18.446;2023-10-13T12:21:42;2.95;;;1.95;;
17390;SDS011;8813;54.444;18.446;2023-10-13T12:24:11;1.60;;;1.60;;
17390;SDS011;8813;54.444;18.446;2023-10-13T12:26:48;0.98;;;0.98;;
17390;SDS011;8813;54.444;18.446;2023-10-13T12:29:22;2.15;;;2.05;;
17390;SDS011;8813;54.444;18.446;2023-10-13T12:31:53;1.52;;;1.52;;
17390;SDS011;8813;54.444;18.446;2023-10-13T12:34:33;1.50;;;1.50;;
17390;SDS011;8813;54.444;18.446;2023-10-13T12:37:22;16.38;;;2.03;;
17390;SDS011;8813;54.444;18.446;2023-10-13T12:40:15;1.63;;;1.63;;
17390;SDS011;8813;54.444;18.446;2023-10-13T12:43:00;3.47;;;1.80;;
17390;SDS011;8813;54.444;18.446;2023-10-13T12:45:47;4.85;;;3.67;;
17390;SDS011;8813;54.444;18.446;2023-10-13T12:48:33;2.60;;;2.50;;
17390;SDS011;8813;54.444;18.446;2023-10-13T12:51:18;6.70;;;3.92;;
17390;SDS011;8813;54.444;18.446;2023-10-13T12:54:06;10.73;;;2.92;;
17390;SDS011;8813;54.444;18.446;2023-10-13T12:56:39;6.25;;;3.88;;
17390;SDS011;8813;54.444;18.446;2023-10-13T12:59:07;2.65;;;2.45;;
17390;SDS011;8813;54.444;18.446;2023-10-13T13:01:37;7.70;;;4.22;;
17390;SDS011;8813;54.444;18.446;2023-10-13T13:04:07;2.83;;;2.65;;
17390;SDS011;8813;54.444;18.446;2023-10-13T13:06:38;6.38;;;3.53;;
17390;SDS011;8813;54.444;18.446;2023-10-13T13:09:05;2.80;;;2.70;;
17390;SDS011;8813;54.444;18.446;2023-10-13T13:11:35;4.97;;;3.33;;
17390;SDS011;8813;54.444;18.446;2023-10-13T13:14:05;6.65;;;4.45;;
17390;SDS011;8813;54.444;18.446;2023-10-13T13:16:34;3.83;;;2.75;;
17390;SDS011;8813;54.444;18.446;2023-10-13T13:19:04;3.13;;;2.70;;
17390;SDS011;8813;54.444;18.446;2023-10-13T13:21:39;1.85;;;1.60;;
17390;SDS011;8813;54.444;18.446;2023-10-13T13:24:07;4.57;;;2.40;;
17390;SDS011;8813;54.444;18.446;2023-10-13T13:26:39;2.50;;;2.40;;
17390;SDS011;8813;54.444;18.446;2023-10-13T13:29:07;2.78;;;2.58;;
17390;SDS011;8813;54.444;18.446;2023-10-13T13:31:39;7.90;;;5.20;;
17390;SDS011;8813;54.444;18.446;2023-10-13T13:34:08;3.58;;;3.28;;
17390;SDS011;8813;54.444;18.446;2023-10-13T13:36:38;3.75;;;3.42;;
17390;SDS011;8813;54.444;18.446;2023-10-13T13:39:09;3.55;;;3.35;;
17390;SDS011;8813;54.444;18.446;2023-10-13T13:41:36;4.15;;;3.85;;
17390;SDS011;8813;54.444;18.446;2023-10-13T13:44:04;5.43;;;5.13;;
17390;SDS011;8813;54.444;18.446;2023-10-13T13:46:42;5.75;;;5.45;;
17390;SDS011;8813;54.444;18.446;2023-10-13T13:49:10;4.65;;;4.35;;
17390;SDS011;8813;54.444;18.446;2023-10-13T13:51:44;8.45;;;6.47;;
17390;SDS011;8813;54.444;18.446;2023-10-13T13:54:18;6.78;;;6.28;;
17390;SDS011;8813;54.444;18.446;2023-10-13T13:56:53;3.75;;;3.53;;
17390;SDS011;8813;54.444;18.446;2023-10-13T13:59:20;7.07;;;5.78;;
17390;SDS011;8813;54.444;18.446;2023-10-13T14:01:49;2.88;;;2.88;;
17390;SDS011;8813;54.444;18.446;2023-10-13T14:04:18;6.35;;;4.93;;
17390;SDS011;8813;54.444;18.446;2023-10-13T14:06:45;5.45;;;5.15;;
17390;SDS011;8813;54.444;18.446;2023-10-13T14:09:12;6.60;;;5.97;;
17390;SDS011;8813;54.444;18.446;2023-10-13T14:11:57;7.32;;;6.80;;
17390;SDS011;8813;54.444;18.446;2023-10-13T14:14:42;5.22;;;4.78;;
17390;SDS011;8813;54.444;18.446;2023-10-13T14:17:16;5.65;;;4.57;;
17390;SDS011;8813;54.444;18.446;2023-10-13T14:19:43;4.00;;;3.72;;
17390;SDS011;8813;54.444;18.446;2023-10-13T14:22:11;9.05;;;5.45;;
17390;SDS011;8813;54.444;18.446;2023-10-13T14:24:38;6.35;;;5.95;;
17390;SDS011;8813;54.444;18.446;2023-10-13T14:27:19;8.07;;;7.13;;
17390;SDS011;8813;54.444;18.446;2023-10-13T14:29:48;6.68;;;6.13;;
17390;SDS011;8813;54.444;18.446;2023-10-13T14:32:20;5.78;;;5.30;;
17390;SDS011;8813;54.444;18.446;2023-10-13T14:34:50;5.45;;;5.18;;
17390;SDS011;8813;54.444;18.446;2023-10-13T14:37:21;11.05;;;8.80;;
17390;SDS011;8813;54.444;18.446;2023-10-13T14:39:54;10.93;;;9.93;;
17390;SDS011;8813;54.444;18.446;2023-10-13T14:42:22;8.70;;;8.15;;
17390;SDS011;8813;54.444;18.446;2023-10-13T14:44:50;12.15;;;11.20;;
17390;SDS011;8813;54.444;18.446;2023-10-13T14:47:22;11.48;;;10.68;;
17390;SDS011;8813;54.444;18.446;2023-10-13T14:49:51;12.63;;;12.23;;
17390;SDS011;8813;54.444;18.446;2023-10-13T14:52:21;17.73;;;16.88;;
17390;SDS011;8813;54.444;18.446;2023-10-13T14:54:49;16.92;;;15.95;;
17390;SDS011;8813;54.444;18.446;2023-10-13T14:57:22;18.10;;;16.92;;
17390;SDS011;8813;54.444;18.446;2023-10-13T14:59:51;21.05;;;19.52;;
17390;SDS011;8813;54.444;18.446;2023-10-13T15:02:19;19.80;;;18.70;;
17390;SDS011;8813;54.444;18.446;2023-10-13T15:04:48;19.23;;;18.38;;
17390;SDS011;8813;54.444;18.446;2023-10-13T15:07:16;23.02;;;21.73;;
17390;SDS011;8813;54.444;18.446;2023-10-13T15:09:45;16.63;;;16.00;;
17390;SDS011;8813;54.444;18.446;2023-10-13T15:12:12;18.52;;;17.75;;
17390;SDS011;8813;54.444;18.446;2023-10-13T15:14:40;22.55;;;21.15;;
17390;SDS011;8813;54.444;18.446;2023-10-13T15:17:09;24.33;;;21.77;;
17390;SDS011;8813;54.444;18.446;2023-10-13T15:19:41;23.95;;;21.83;;
17390;SDS011;8813;54.444;18.446;2023-10-13T15:22:09;20.90;;;19.73;;
17390;SDS011;8813;54.444;18.446;2023-10-13T15:24:46;24.00;;;22.55;;
17390;SDS011;8813;54.444;18.446;2023-10-13T15:27:26;22.50;;;21.15;;
17390;SDS011;8813;54.444;18.446;2023-10-13T15:29:54;23.27;;;21.63;;
17390;SDS011;8813;54.444;18.446;2023-10-13T15:32:24;19.75;;;18.83;;